createdAt,value
2023-04-04T00:01:06.430Z,7.25
2023-04-04T00:03:36.118Z,7.32
2023-04-04T00:06:04.406Z,7.31
2023-04-04T00:08:32.494Z,7.25
2023-04-04T00:11:01.596Z,7.32
2023-04-04T00:13:30.201Z,7.34
2023-04-04T00:15:58.938Z,7.18
2023-04-04T00:18:27.221Z,7.26
2023-04-04T00:20:56.768Z,7.25
2023-04-04T00:23:25.411Z,7.14
2023-04-04T00:25:54.173Z,7.07
2023-04-04T00:28:23.295Z,7.04
2023-04-04T00:30:51.422Z,6.91
2023-04-04T00:33:19.713Z,7.04
2023-04-04T00:35:49.854Z,7.16
2023-04-04T00:38:19.455Z,7.22
2023-04-04T00:40:50.740Z,7.36
2023-04-04T00:43:19.712Z,7.41
2023-04-04T00:45:48.367Z,7.37
2023-04-04T00:48:17.110Z,7.28
2023-04-04T00:50:45.577Z,7.21
2023-04-04T00:53:13.689Z,7.18
2023-04-04T00:55:44.079Z,7.16
2023-04-04T00:58:12.992Z,7.09
2023-04-04T01:00:41.600Z,6.94
2023-04-04T01:03:12.900Z,6.79
2023-04-04T01:05:41.974Z,6.82
2023-04-04T01:08:10.505Z,6.87
2023-04-04T01:10:40.880Z,6.97
2023-04-04T01:13:11.068Z,7.00
2023-04-04T01:15:39.640Z,7.00
2023-04-04T01:18:09.956Z,7.01
2023-04-04T01:20:45.649Z,7.14
2023-04-04T01:23:14.891Z,7.17
2023-04-04T01:25:44.912Z,7.18
2023-04-04T01:28:13.036Z,6.95
2023-04-04T01:30:43.799Z,6.94
2023-04-04T01:33:21.123Z,7.06
2023-04-04T01:36:03.432Z,7.02
2023-04-04T01:38:37.242Z,6.89
2023-04-04T01:41:12.283Z,6.84
2023-04-04T01:43:40.752Z,6.74
2023-04-04T01:46:08.968Z,6.75
2023-04-04T01:48:37.149Z,6.60
2023-04-04T01:51:06.239Z,6.62
2023-04-04T01:53:34.363Z,6.51
2023-04-04T01:56:02.792Z,6.64
2023-04-04T01:58:32.468Z,6.72
2023-04-04T02:01:00.829Z,6.70
2023-04-04T02:03:29.022Z,6.69
2023-04-04T02:05:57.203Z,6.69
2023-04-04T02:08:25.485Z,6.72
2023-04-04T02:10:53.700Z,6.67
2023-04-04T02:13:22.018Z,6.72
2023-04-04T02:15:52.524Z,6.74
2023-04-04T02:18:20.934Z,6.75
2023-04-04T02:20:56.049Z,6.83
2023-04-04T02:23:24.630Z,6.90
2023-04-04T02:25:53.245Z,6.73
2023-04-04T02:28:21.688Z,6.92
2023-04-04T02:30:51.451Z,6.91
2023-04-04T02:33:19.710Z,7.08
2023-04-04T02:35:47.908Z,7.14
2023-04-04T02:38:16.207Z,7.13
2023-04-04T02:40:46.786Z,7.11
2023-04-04T02:43:14.954Z,7.12
2023-04-04T02:45:43.416Z,7.20
2023-04-04T02:48:13.542Z,7.17
2023-04-04T02:50:41.906Z,7.17
2023-04-04T02:53:10.157Z,7.14
2023-04-04T02:55:38.332Z,7.02
2023-04-04T02:58:06.418Z,7.32
2023-04-04T03:00:34.703Z,7.39
2023-04-04T03:03:03.021Z,7.27
2023-04-04T03:05:33.094Z,7.43
2023-04-04T03:08:01.873Z,7.43
2023-04-04T03:10:31.207Z,7.50
2023-04-04T03:12:59.681Z,7.61
2023-04-04T03:15:28.053Z,7.49
2023-04-04T03:17:56.927Z,7.76
2023-04-04T03:20:25.047Z,7.77
2023-04-04T03:22:57.975Z,7.55
2023-04-04T03:25:26.658Z,7.57
2023-04-04T03:27:54.922Z,7.33
2023-04-04T03:30:23.400Z,7.24
2023-04-04T03:32:51.720Z,7.29
2023-04-04T03:35:19.978Z,7.14
2023-04-04T03:37:52.541Z,7.40
2023-04-04T03:40:22.101Z,7.50
2023-04-04T03:42:50.172Z,7.48
2023-04-04T03:45:19.107Z,7.50
2023-04-04T03:47:47.984Z,7.38
2023-04-04T03:50:16.358Z,7.25
2023-04-04T03:52:44.547Z,7.32
2023-04-04T03:55:13.330Z,7.44
2023-04-04T03:57:42.975Z,7.43
2023-04-04T04:00:12.493Z,7.38
2023-04-04T04:02:40.872Z,7.44
2023-04-04T04:05:10.388Z,7.46
2023-04-04T04:07:38.708Z,7.44
2023-04-04T04:10:07.760Z,7.39
2023-04-04T04:12:35.956Z,7.49
2023-04-04T04:15:06.260Z,7.32
2023-04-04T04:17:34.500Z,7.22
2023-04-04T04:20:02.601Z,7.12
2023-04-04T04:22:31.233Z,7.02
2023-04-04T04:24:59.661Z,7.05
2023-04-04T04:27:28.197Z,7.06
2023-04-04T04:29:56.887Z,7.05
2023-04-04T04:32:28.272Z,7.16
2023-04-04T04:34:56.740Z,7.07
2023-04-04T04:37:26.537Z,7.20
2023-04-04T04:39:54.793Z,7.29
2023-04-04T04:42:23.278Z,7.47
2023-04-04T04:44:51.618Z,7.71
2023-04-04T04:47:19.950Z,7.83
2023-04-04T04:49:49.929Z,7.97
2023-04-04T04:52:19.418Z,8.03
2023-04-04T04:54:48.230Z,8.15
2023-04-04T04:57:16.325Z,8.15
2023-04-04T04:59:44.592Z,8.24
2023-04-04T05:02:13.133Z,8.32
2023-04-04T05:04:41.464Z,8.31
2023-04-04T05:07:12.510Z,8.37
2023-04-04T05:09:40.588Z,8.42
2023-04-04T05:12:09.045Z,8.29
2023-04-04T05:14:37.718Z,8.27
2023-04-04T05:17:06.130Z,8.33
2023-04-04T05:19:34.647Z,7.57
2023-04-04T05:22:03.306Z,8.23
2023-04-04T05:24:33.141Z,8.25
2023-04-04T05:27:01.534Z,8.26
2023-04-04T05:29:29.823Z,8.17
2023-04-04T05:31:58.288Z,8.15
2023-04-04T05:34:26.842Z,8.17
2023-04-04T05:36:55.543Z,8.15
2023-04-04T05:39:23.876Z,8.05
2023-04-04T05:41:54.000Z,8.00
2023-04-04T05:44:22.348Z,7.98
2023-04-04T05:46:50.555Z,8.09
2023-04-04T05:49:18.918Z,8.11
2023-04-04T05:51:47.510Z,8.12
2023-04-04T05:54:15.755Z,8.14
2023-04-04T05:56:44.119Z,8.12
2023-04-04T05:59:14.001Z,8.02
2023-04-04T06:01:42.125Z,8.26
2023-04-04T06:04:10.579Z,8.36
2023-04-04T06:06:39.209Z,8.29
2023-04-04T06:09:08.853Z,8.41
2023-04-04T06:11:37.563Z,8.47
2023-04-04T06:14:06.075Z,8.55
2023-04-04T06:16:36.302Z,8.57
2023-04-04T06:19:04.490Z,8.52
2023-04-04T06:21:32.769Z,8.47
2023-04-04T06:24:01.062Z,8.46
2023-04-04T06:26:29.424Z,8.31
2023-04-04T06:28:57.929Z,8.57
2023-04-04T06:31:26.112Z,8.56
2023-04-04T06:33:55.767Z,8.63
2023-04-04T06:36:24.225Z,8.72
2023-04-04T06:38:52.317Z,8.76
2023-04-04T06:41:23.207Z,8.75
2023-04-04T06:43:51.396Z,8.61
2023-04-04T06:46:20.053Z,8.49
2023-04-04T06:48:48.858Z,8.71
2023-04-04T06:51:18.728Z,7.88
2023-04-04T06:53:47.138Z,8.89
2023-04-04T06:56:15.366Z,9.04
2023-04-04T06:58:43.493Z,9.09
2023-04-04T07:01:11.912Z,9.18
2023-04-04T07:03:40.501Z,9.40
2023-04-04T07:06:08.752Z,9.33
2023-04-04T07:08:38.375Z,9.41
2023-04-04T07:11:08.389Z,9.35
2023-04-04T07:13:36.730Z,9.54
2023-04-04T07:16:04.990Z,9.30
2023-04-04T07:18:33.265Z,9.48
2023-04-04T07:21:01.713Z,9.57
2023-04-04T07:23:29.961Z,9.56
2023-04-04T07:25:59.979Z,9.60
2023-04-04T07:28:28.358Z,9.68
2023-04-04T07:30:56.726Z,9.51
2023-04-04T07:33:25.010Z,9.64
2023-04-04T07:35:53.457Z,9.67
2023-04-04T07:38:22.051Z,9.97
2023-04-04T07:40:50.686Z,10.06
2023-04-04T07:43:20.403Z,10.06
2023-04-04T07:45:48.740Z,9.90
2023-04-04T07:48:17.267Z,10.00
2023-04-04T07:50:45.756Z,10.04
2023-04-04T07:53:13.909Z,9.98
2023-04-04T07:55:42.326Z,10.22
2023-04-04T07:58:11.020Z,10.17
2023-04-04T08:00:40.792Z,10.23
2023-04-04T08:03:09.374Z,10.39
2023-04-04T08:05:37.674Z,10.50
2023-04-04T08:08:05.843Z,10.40
2023-04-04T08:10:34.247Z,10.52
2023-04-04T08:13:02.447Z,10.48
2023-04-04T08:15:30.973Z,10.46
2023-04-04T08:18:00.835Z,10.68
2023-04-04T08:20:29.566Z,10.71
2023-04-04T08:22:58.675Z,10.55
2023-04-04T08:25:27.232Z,10.65
2023-04-04T08:27:55.740Z,10.75
2023-04-04T08:30:24.321Z,10.85
2023-04-04T08:32:52.930Z,10.95
2023-04-04T08:35:22.741Z,10.97
2023-04-04T08:37:51.118Z,10.73
2023-04-04T08:40:19.614Z,10.71
2023-04-04T08:42:49.698Z,10.28
2023-04-04T08:45:20.016Z,10.30
2023-04-04T08:47:51.575Z,10.34
2023-04-04T08:50:23.139Z,10.16
2023-04-04T08:52:51.656Z,10.38
2023-04-04T08:55:20.403Z,10.51
2023-04-04T08:57:49.561Z,10.85
2023-04-04T09:00:21.603Z,10.86
2023-04-04T09:02:58.146Z,11.11
2023-04-04T09:05:29.329Z,11.11
2023-04-04T09:08:00.856Z,10.97
2023-04-04T09:10:29.926Z,10.44
2023-04-04T09:13:12.398Z,10.76
2023-04-04T09:15:47.820Z,11.27
2023-04-04T09:18:16.542Z,11.02
2023-04-04T09:20:47.614Z,10.96
2023-04-04T09:23:17.517Z,11.00
2023-04-04T09:28:23.671Z,10.91
2023-04-04T09:30:53.282Z,11.20
2023-04-04T09:33:24.126Z,11.40
2023-04-04T09:35:59.479Z,11.22
2023-04-04T09:38:30.075Z,11.00
2023-04-04T09:40:58.848Z,11.04
2023-04-04T09:43:31.215Z,11.08
2023-04-04T09:46:01.919Z,10.98
2023-04-04T09:48:33.626Z,11.27
2023-04-04T09:51:05.980Z,11.22
2023-04-04T09:53:37.417Z,11.27
2023-04-04T09:56:07.154Z,11.65
2023-04-04T09:58:36.782Z,11.60
2023-04-04T10:01:11.055Z,11.97
2023-04-04T10:03:39.961Z,11.96
2023-04-04T10:06:11.362Z,11.55
2023-04-04T10:08:41.854Z,11.49
2023-04-04T10:11:12.375Z,11.40
2023-04-04T10:13:44.274Z,11.47
2023-04-04T10:16:12.988Z,11.73
2023-04-04T10:18:41.234Z,11.92
2023-04-04T10:23:44.117Z,11.95
2023-04-04T10:26:13.871Z,11.85
2023-04-04T10:28:43.939Z,11.99
2023-04-04T10:31:18.795Z,12.23
2023-04-04T10:33:53.828Z,12.72
2023-04-04T10:36:26.609Z,13.02
2023-04-04T10:39:06.403Z,12.92
2023-04-04T10:41:35.977Z,12.95
2023-04-04T10:44:19.913Z,12.60
2023-04-04T10:46:53.806Z,12.29
2023-04-04T10:49:23.927Z,12.47
2023-04-04T10:51:57.399Z,12.37
2023-04-04T10:54:29.281Z,12.71
2023-04-04T10:57:00.934Z,12.41
2023-04-04T10:59:29.390Z,12.43
2023-04-04T11:01:59.747Z,12.68
2023-04-04T11:04:35.420Z,12.77
2023-04-04T11:07:17.375Z,12.73
2023-04-04T11:09:54.371Z,12.84
2023-04-04T11:12:30.138Z,12.85
2023-04-04T11:15:08.240Z,12.80
2023-04-04T11:17:44.322Z,12.59
2023-04-04T11:20:16.323Z,12.49
2023-04-04T11:22:46.144Z,12.55
2023-04-04T11:25:33.533Z,12.48
2023-04-04T11:28:10.139Z,12.65
2023-04-04T11:30:48.541Z,12.81
2023-04-04T11:33:34.066Z,12.56
2023-04-04T11:36:08.622Z,12.57
2023-04-04T11:38:42.153Z,12.85
2023-04-04T11:41:10.847Z,12.86
2023-04-04T11:43:49.768Z,12.89
2023-04-04T11:46:19.870Z,12.78
2023-04-04T11:48:49.525Z,12.78
2023-04-04T11:51:19.871Z,12.52
2023-04-04T11:53:50.167Z,12.39
2023-04-04T11:56:20.875Z,12.67
2023-04-04T11:58:56.066Z,12.73
2023-04-04T12:01:30.536Z,12.41
2023-04-04T12:04:01.480Z,12.31
2023-04-04T12:06:33.200Z,12.57
2023-04-04T12:09:03.987Z,12.56
2023-04-04T12:11:33.877Z,12.59
2023-04-04T12:14:02.669Z,12.65
2023-04-04T12:16:31.952Z,12.99
2023-04-04T12:19:03.414Z,13.14
2023-04-04T12:21:33.321Z,13.32
2023-04-04T12:24:03.025Z,13.35
2023-04-04T12:26:33.020Z,13.65
2023-04-04T12:29:02.513Z,13.84
2023-04-04T12:31:32.146Z,13.65
2023-04-04T12:34:01.438Z,13.57
2023-04-04T12:36:31.613Z,13.97
2023-04-04T12:39:03.611Z,13.65
2023-04-04T12:41:32.194Z,13.60
2023-04-04T12:44:04.005Z,13.74
2023-04-04T12:46:38.986Z,13.77
2023-04-04T12:49:08.477Z,13.62
2023-04-04T12:51:38.126Z,13.67
2023-04-04T12:54:08.594Z,12.87
2023-04-04T12:56:37.406Z,13.31
2023-04-04T12:59:11.230Z,13.30
2023-04-04T13:01:40.430Z,13.56
2023-04-04T13:04:10.865Z,13.51
2023-04-04T13:06:39.859Z,13.45
2023-04-04T13:09:18.556Z,13.37
2023-04-04T13:11:58.850Z,13.73
2023-04-04T13:14:27.295Z,13.96
2023-04-04T13:17:08.414Z,13.84
2023-04-04T13:19:37.029Z,14.01
2023-04-04T13:22:05.401Z,14.27
2023-04-04T13:24:35.388Z,14.38
2023-04-04T13:27:03.895Z,14.42
2023-04-04T13:29:32.361Z,14.46
2023-04-04T13:32:01.906Z,14.66
2023-04-04T13:34:30.077Z,14.22
2023-04-04T13:36:58.348Z,13.90
2023-04-04T13:39:26.879Z,14.18
2023-04-04T13:41:57.575Z,14.05
2023-04-04T13:44:27.116Z,13.86
2023-04-04T13:46:55.858Z,14.17
2023-04-04T13:49:24.611Z,13.72
2023-04-04T13:51:52.764Z,13.23
2023-04-04T13:54:21.326Z,12.95
2023-04-04T13:56:49.633Z,13.13
2023-04-04T13:59:19.411Z,13.33
2023-04-04T14:01:47.805Z,13.79
2023-04-04T14:04:23.437Z,13.87
2023-04-04T14:06:52.542Z,13.42
2023-04-04T14:09:20.996Z,13.28
2023-04-04T14:11:49.176Z,13.73
2023-04-04T14:14:19.264Z,13.93
2023-04-04T14:16:47.546Z,13.72
2023-04-04T14:19:16.006Z,13.57
2023-04-04T14:21:44.546Z,13.18
2023-04-04T14:24:12.774Z,13.08
2023-04-04T14:26:40.988Z,12.81
2023-04-04T14:29:09.456Z,12.81
2023-04-04T14:31:39.559Z,12.85
2023-04-04T14:34:07.975Z,12.95
2023-04-04T14:36:36.925Z,12.90
2023-04-04T14:39:05.346Z,12.69
2023-04-04T14:41:33.586Z,12.60
2023-04-04T14:44:02.566Z,12.88
2023-04-04T14:46:31.001Z,12.60
2023-04-04T14:49:00.556Z,12.49
2023-04-04T14:51:28.972Z,12.16
2023-04-04T14:53:57.341Z,12.52
2023-04-04T14:56:26.455Z,12.78
2023-04-04T14:58:54.824Z,13.13
2023-04-04T15:01:28.373Z,12.94
2023-04-04T15:03:56.902Z,12.52
2023-04-04T15:06:27.267Z,12.50
2023-04-04T15:08:55.887Z,12.30
2023-04-04T15:11:28.493Z,12.24
2023-04-04T15:13:56.964Z,12.36
2023-04-04T15:16:25.512Z,12.31
2023-04-04T15:18:53.929Z,12.49
2023-04-04T15:21:22.078Z,12.16
2023-04-04T15:23:51.705Z,12.52
2023-04-04T15:26:20.005Z,12.89
2023-04-04T15:28:49.342Z,12.78
2023-04-04T15:31:18.016Z,12.74
2023-04-04T15:33:46.219Z,13.07
2023-04-04T15:36:16.927Z,13.02
2023-04-04T15:38:45.236Z,12.98
2023-04-04T15:41:14.807Z,13.11
2023-04-04T15:43:42.969Z,13.17
2023-04-04T15:46:11.267Z,13.32
2023-04-04T15:48:41.859Z,13.29
2023-04-04T15:51:10.334Z,13.38
2023-04-04T15:53:38.590Z,13.61
2023-04-04T15:56:07.349Z,13.46
2023-04-04T15:58:37.992Z,13.63
2023-04-04T16:01:07.631Z,13.71
2023-04-04T16:03:36.105Z,13.71
2023-04-04T16:06:06.587Z,13.41
2023-04-04T16:08:34.906Z,13.30
2023-04-04T16:11:03.553Z,13.63
2023-04-04T16:13:32.243Z,13.75
2023-04-04T16:16:02.233Z,13.72
2023-04-04T16:18:31.207Z,13.63
2023-04-04T16:20:59.420Z,13.51
2023-04-04T16:23:27.695Z,13.65
2023-04-04T16:25:56.382Z,13.49
2023-04-04T16:28:24.756Z,13.47
2023-04-04T16:30:53.197Z,13.26
2023-04-04T16:33:24.250Z,13.00
2023-04-04T16:35:52.361Z,13.02
2023-04-04T16:38:20.474Z,12.95
2023-04-04T16:40:49.032Z,12.92
2023-04-04T16:43:17.146Z,12.92
2023-04-04T16:45:45.514Z,13.02
2023-04-04T16:48:13.983Z,12.94
2023-04-04T16:50:43.521Z,12.80
2023-04-04T16:53:11.875Z,12.64
2023-04-04T16:55:40.213Z,12.97
2023-04-04T16:58:08.326Z,12.62
2023-04-04T17:00:37.556Z,12.87
2023-04-04T17:03:06.248Z,12.94
2023-04-04T17:05:34.473Z,13.09
2023-04-04T17:08:09.377Z,13.28
2023-04-04T17:10:40.596Z,13.02
2023-04-04T17:13:10.471Z,12.95
2023-04-04T17:15:38.598Z,12.54
2023-04-04T17:18:07.227Z,12.76
2023-04-04T17:20:38.232Z,12.64
2023-04-04T17:23:08.046Z,12.66
2023-04-04T17:25:36.659Z,12.66
2023-04-04T17:28:06.674Z,12.76
2023-04-04T17:30:36.736Z,12.60
2023-04-04T17:33:05.110Z,12.52
2023-04-04T17:35:34.906Z,12.58
2023-04-04T17:38:03.076Z,12.62
2023-04-04T17:40:32.838Z,12.34
2023-04-04T17:43:01.049Z,12.57
2023-04-04T17:45:29.851Z,12.82
2023-04-04T17:47:58.328Z,12.94
2023-04-04T17:50:28.312Z,12.94
2023-04-04T17:52:56.728Z,12.77
2023-04-04T17:55:32.487Z,12.70
2023-04-04T17:58:02.550Z,12.58
2023-04-04T18:00:35.138Z,12.40
2023-04-04T18:03:03.436Z,12.50
2023-04-04T18:05:32.450Z,12.59
2023-04-04T18:08:05.275Z,12.39
2023-04-04T18:10:33.982Z,12.24
2023-04-04T18:13:03.736Z,12.54
2023-04-04T18:15:32.206Z,12.27
2023-04-04T18:18:03.546Z,12.26
2023-04-04T18:20:34.987Z,12.57
2023-04-04T18:23:04.604Z,12.57
2023-04-04T18:25:33.732Z,12.66
2023-04-04T18:28:06.300Z,12.58
2023-04-04T18:30:37.330Z,12.68
2023-04-04T18:33:06.315Z,12.57
2023-04-04T18:35:34.643Z,12.46
2023-04-04T18:38:03.225Z,12.47
2023-04-04T18:40:32.500Z,12.16
2023-04-04T18:43:04.500Z,12.02
2023-04-04T18:45:40.306Z,12.14
2023-04-04T18:48:09.552Z,12.35
2023-04-04T18:50:38.032Z,12.17
2023-04-04T18:53:06.289Z,12.35
2023-04-04T18:55:34.726Z,12.43
2023-04-04T18:58:04.557Z,12.46
2023-04-04T19:00:32.836Z,12.52
2023-04-04T19:03:01.206Z,12.38
2023-04-04T19:05:34.302Z,12.25
2023-04-04T19:08:04.402Z,12.38
2023-04-04T19:10:33.260Z,12.54
2023-04-04T19:13:01.745Z,12.43
2023-04-04T19:15:32.976Z,12.29
2023-04-04T19:18:01.926Z,12.08
2023-04-04T19:20:30.081Z,12.02
2023-04-04T19:22:58.956Z,11.76
2023-04-04T19:25:27.335Z,11.61
2023-04-04T19:27:55.896Z,11.78
2023-04-04T19:30:50.397Z,11.90
2023-04-04T19:33:21.806Z,11.95
2023-04-04T19:35:59.492Z,11.78
2023-04-04T19:38:29.518Z,11.72
2023-04-04T19:40:59.666Z,11.88
2023-04-04T19:43:28.887Z,11.90
2023-04-04T19:46:00.344Z,11.77
2023-04-04T19:48:44.758Z,11.49
2023-04-04T19:51:44.364Z,11.47
2023-04-04T19:54:16.295Z,11.30
2023-04-04T19:56:50.634Z,11.08
2023-04-04T19:59:57.981Z,10.90
2023-04-04T20:02:57.929Z,11.12
2023-04-04T20:06:00.204Z,11.36
2023-04-04T20:08:38.668Z,11.46
2023-04-04T20:11:08.508Z,11.59
2023-04-04T20:13:37.509Z,11.62
2023-04-04T20:16:08.191Z,11.72
2023-04-04T20:18:44.106Z,11.47
2023-04-04T20:21:14.266Z,11.28
2023-04-04T20:23:46.361Z,11.18
2023-04-04T20:26:35.399Z,11.10
2023-04-04T20:29:06.898Z,11.08
2023-04-04T20:31:36.614Z,10.88
2023-04-04T20:34:07.851Z,11.04
2023-04-04T20:36:42.568Z,10.95
2023-04-04T20:39:41.398Z,10.86
2023-04-04T20:42:19.744Z,10.76
2023-04-04T20:44:48.357Z,10.84
2023-04-04T20:47:43.571Z,10.80
2023-04-04T20:50:45.805Z,10.72
2023-04-04T20:53:20.363Z,10.84
2023-04-04T20:55:50.652Z,10.79
2023-04-04T20:58:28.154Z,10.65
2023-04-04T21:00:58.253Z,10.87
2023-04-04T21:03:32.495Z,10.75
2023-04-04T21:06:04.765Z,10.84
2023-04-04T21:08:51.095Z,10.88
2023-04-04T21:11:25.465Z,11.05
2023-04-04T21:13:53.604Z,10.94
2023-04-04T21:16:26.881Z,11.00
2023-04-04T21:18:59.413Z,10.98
2023-04-04T21:21:30.094Z,10.95
2023-04-04T21:24:01.105Z,10.77
2023-04-04T21:26:32.321Z,10.75
2023-04-04T21:29:02.199Z,10.53
2023-04-04T21:31:36.381Z,10.57
2023-04-04T21:34:13.746Z,10.40
2023-04-04T21:36:43.567Z,10.39
2023-04-04T21:39:13.972Z,10.34
2023-04-04T21:41:44.211Z,10.30
2023-04-04T21:44:13.848Z,10.17
2023-04-04T21:46:43.188Z,10.27
2023-04-04T21:49:12.512Z,10.35
2023-04-04T21:51:42.461Z,10.37
2023-04-04T21:54:10.687Z,10.26
2023-04-04T21:56:39.243Z,10.28
2023-04-04T21:59:09.187Z,10.29
2023-04-04T22:01:38.134Z,10.33
2023-04-04T22:04:06.822Z,10.25
2023-04-04T22:06:35.143Z,10.24
2023-04-04T22:09:06.757Z,10.30
2023-04-04T22:11:38.995Z,10.34
2023-04-04T22:14:07.849Z,10.16
2023-04-04T22:16:39.658Z,10.47
2023-04-04T22:19:11.468Z,10.53
2023-04-04T22:21:48.008Z,10.61
2023-04-04T22:24:19.005Z,10.40
2023-04-04T22:26:47.514Z,10.42
2023-04-04T22:29:17.390Z,10.40
2023-04-04T22:31:46.186Z,10.29
2023-04-04T22:34:15.400Z,10.47
2023-04-04T22:36:44.292Z,10.25
2023-04-04T22:39:16.308Z,10.27
2023-04-04T22:41:46.939Z,10.33
2023-04-04T22:44:15.296Z,10.46
2023-04-04T22:46:43.591Z,10.39
2023-04-04T22:49:13.649Z,10.39
2023-04-04T22:51:45.990Z,10.30
2023-04-04T22:54:16.572Z,10.07
2023-04-04T22:56:46.700Z,9.92
2023-04-04T22:59:15.524Z,10.07
2023-04-04T23:01:43.715Z,10.20
2023-04-04T23:04:12.185Z,10.31
2023-04-04T23:06:40.511Z,10.36
2023-04-04T23:09:09.041Z,10.33
2023-04-04T23:11:38.287Z,10.11
2023-04-04T23:14:09.632Z,10.06
2023-04-04T23:16:38.639Z,10.08
2023-04-04T23:19:09.104Z,10.26
2023-04-04T23:21:38.179Z,10.18
2023-04-04T23:24:07.181Z,10.26
2023-04-04T23:26:35.535Z,10.16
2023-04-04T23:29:04.264Z,10.07
2023-04-04T23:31:33.834Z,9.94
2023-04-04T23:34:02.156Z,9.94
2023-04-04T23:36:31.173Z,9.81
2023-04-04T23:38:59.447Z,9.72
2023-04-04T23:41:28.424Z,9.69
2023-04-04T23:43:56.754Z,9.65
2023-04-04T23:46:25.339Z,9.60
2023-04-04T23:48:55.500Z,9.50
2023-04-04T23:51:25.735Z,9.32
2023-04-04T23:53:54.039Z,9.56
2023-04-04T23:56:22.756Z,9.53
2023-04-04T23:58:51.956Z,9.44
